Portada
METAR-TAF:

METAR-TAF

Aeroports :

Ilam, Iran

latitud: 33-35-09N, longitud: 046-24-20E, altitud: 1334 m

Observació

L'informe es va fer fa 36 minuts, a les 00:00 UTC
Vent calma
Temperatura 11°C
Humitat 40%
Pressió 1019 hPa
Visibilitat: 1800 m
Pols estès,

METAR: OICI 180000Z 00000KT 1800 DU NSC 11/M02 Q1019

Hora: 05:06 (00:36 UTC)

Pronòstic

L'informe es va fer fa 1 hora i 26 minuts, a les 23:10 UTC
Pronòstic vàlid del 18 a les 00 UTC al 19 a les 06 UTC
Vent 6 kt del Est/Sud-Est
Visibilitat: 2000 m
Pols estès
Evolucionant progressivament
l' 18 a les 04 UTC al 18 a les 06 UTC
Visibilitat: 6000 m
Temporalment
l' 18 a les 06 UTC al 18 a les 16 UTC
Vent 16 kt del Oest

TAF: OICI 172310Z 1800/1906 11006KT 2000 DU NSC BECMG 1804/1806 6000 NSC TEMPO 1806/1816 26016KT

Observacions i pronòstics meteorològics de més de 4000 aeroports (METAR i TAF).

Les estacions disponibles són els punts grocs i vermells al mapa.

Posi el ratolí al punt desitjat per veure el nom de l'estació.

Feu clic per veure les observacions i els pronòstics meteorològics.

Per canviar el mapa: feu clic els botons verds amb una creu de color negre per apropar; al botó verd amb un guió per allunyar la imatge; o en les fletxes verdes per a mapes adjacents.


METAR-TAF: